createdAt,value
2023-05-06T00:00:17.470Z,100073.72
2023-05-06T00:02:45.523Z,100075.38
2023-05-06T00:05:14.071Z,100072.88
2023-05-06T00:07:42.050Z,100072.06
2023-05-06T00:10:10.661Z,100073.94
2023-05-06T00:12:38.595Z,100078.53
2023-05-06T00:15:07.991Z,100082.88
2023-05-06T00:17:37.563Z,100073.34
2023-05-06T00:20:07.133Z,100079.13
2023-05-06T00:22:35.172Z,100075.59
2023-05-06T00:25:03.194Z,100074.56
2023-05-06T00:27:31.256Z,100079.13
2023-05-06T00:29:59.312Z,100079.13
2023-05-06T00:32:27.478Z,100078.28
2023-05-06T00:34:56.890Z,100082.88
2023-05-06T00:37:24.917Z,100084.53
2023-05-06T00:39:52.913Z,100077.47
2023-05-06T00:42:22.653Z,100080.16
2023-05-06T00:44:50.670Z,100079.56
2023-05-06T00:47:18.798Z,100087.09
2023-05-06T00:49:47.487Z,100080.03
2023-05-06T00:52:16.804Z,100082.13
2023-05-06T00:54:45.750Z,100080.25
2023-05-06T00:57:13.809Z,100075.06
2023-05-06T00:59:41.791Z,100080.47
2023-05-06T01:02:09.872Z,100077.16
2023-05-06T01:04:56.498Z,100085.06
2023-05-06T01:07:30.041Z,100086.09
2023-05-06T01:10:01.129Z,100088.78
2023-05-06T01:12:32.273Z,100085.28
2023-05-06T01:15:06.517Z,100083.63
2023-05-06T01:17:35.466Z,100087.97
2023-05-06T01:20:05.387Z,100084.66
2023-05-06T01:22:35.199Z,100080.09
2023-05-06T01:25:04.712Z,100076.34
2023-05-06T01:27:32.669Z,100088.78
2023-05-06T01:30:00.807Z,100083.38
2023-05-06T01:32:41.966Z,100087.97
2023-05-06T01:35:18.032Z,100083.38
2023-05-06T01:37:59.804Z,100081.53
2023-05-06T01:40:30.397Z,100080.94
2023-05-06T01:42:58.297Z,100078.22
2023-05-06T01:45:27.921Z,100082.81
2023-05-06T01:47:55.895Z,100080.09
2023-05-06T01:50:23.920Z,100084.91
2023-05-06T01:52:58.596Z,100083.03
2023-05-06T01:55:26.331Z,100079.72
2023-05-06T01:57:56.532Z,100075.59
2023-05-06T02:00:26.443Z,100073.13
2023-05-06T02:02:54.751Z,100072.31
2023-05-06T02:05:22.772Z,100078.53
2023-05-06T02:07:51.293Z,100080.63
2023-05-06T02:10:19.540Z,100078.97
2023-05-06T02:12:47.549Z,100082.72
2023-05-06T02:15:16.902Z,100077.31
2023-05-06T02:17:44.886Z,100070.28
2023-05-06T02:20:13.008Z,100072.16
2023-05-06T02:22:40.984Z,100070.28
2023-05-06T02:25:10.554Z,100076.50
2023-05-06T02:27:38.749Z,100073.19
2023-05-06T02:30:07.903Z,100070.28
2023-05-06T02:32:37.393Z,100066.75
2023-05-06T02:35:06.239Z,100075.69
2023-05-06T02:37:34.245Z,100065.69
2023-05-06T02:40:02.271Z,100072.72
2023-05-06T02:42:30.227Z,100066.50
2023-05-06T02:44:58.276Z,100078.13
2023-05-06T02:47:26.254Z,100078.13
2023-05-06T02:49:55.662Z,100072.72
2023-05-06T02:52:23.605Z,100072.72
2023-05-06T02:54:51.614Z,100077.31
2023-05-06T02:57:19.642Z,100077.31
2023-05-06T02:59:47.619Z,100076.50
2023-05-06T03:02:15.677Z,100072.38
2023-05-06T03:04:43.604Z,100076.13
2023-05-06T03:07:13.798Z,100070.13
2023-05-06T03:09:41.991Z,100074.47
2023-05-06T03:12:09.899Z,100072.00
2023-05-06T03:14:37.869Z,100065.78
2023-05-06T03:17:05.906Z,100063.28
2023-05-06T03:19:33.940Z,100057.88
2023-05-06T03:22:01.877Z,100059.97
2023-05-06T03:24:31.243Z,100059.78
2023-05-06T03:26:59.544Z,100062.69
2023-05-06T03:29:27.453Z,100063.75
2023-05-06T03:31:57.137Z,100063.75
2023-05-06T03:34:25.238Z,100062.91
2023-05-06T03:36:53.183Z,100062.91
2023-05-06T03:39:21.640Z,100067.47
2023-05-06T03:41:51.062Z,100060.22
2023-05-06T03:44:19.030Z,100063.50
2023-05-06T03:46:46.884Z,100071.59
2023-05-06T03:49:14.801Z,100067.25
2023-05-06T03:51:42.822Z,100065.63
2023-05-06T03:54:10.846Z,100064.56
2023-05-06T03:56:38.797Z,100073.72
2023-05-06T03:59:09.028Z,100071.03
2023-05-06T04:01:36.952Z,100069.34
2023-05-06T04:04:05.163Z,100073.72
2023-05-06T04:06:33.201Z,100078.06
2023-05-06T04:09:01.088Z,100083.47
2023-05-06T04:11:29.893Z,100086.16
2023-05-06T04:13:57.917Z,100089.94
2023-05-06T04:16:27.754Z,100094.25
2023-05-06T04:18:56.379Z,100089.94
2023-05-06T04:21:24.348Z,100099.06
2023-05-06T04:23:52.375Z,100090.97
2023-05-06T04:26:20.391Z,100099.06
2023-05-06T04:28:48.343Z,100091.56
2023-05-06T04:31:16.621Z,100096.16
2023-05-06T04:33:46.085Z,100098.59
2023-05-06T04:36:14.452Z,100104.00
2023-05-06T04:38:42.487Z,100101.31
2023-05-06T04:41:10.427Z,100100.28
2023-05-06T04:43:38.351Z,100101.91
2023-05-06T04:46:06.524Z,100107.94
2023-05-06T04:48:34.587Z,100115.78
2023-05-06T04:51:05.466Z,100109.97
2023-05-06T04:53:33.381Z,100109.72
2023-05-06T04:56:01.473Z,100099.53
2023-05-06T04:58:29.401Z,100101.16
2023-05-06T05:00:58.071Z,100102.03
2023-05-06T05:03:26.277Z,100104.72
2023-05-06T05:05:54.283Z,100092.25
2023-05-06T05:08:23.796Z,100100.34
2023-05-06T05:10:51.726Z,100106.56
2023-05-06T05:13:20.139Z,100100.59
2023-05-06T05:15:48.177Z,100106.00
2023-05-06T05:18:16.156Z,100105.13
2023-05-06T05:20:44.168Z,100105.38
2023-05-06T05:23:12.188Z,100109.97
2023-05-06T05:25:41.598Z,100104.78
2023-05-06T05:28:09.709Z,100112.06
2023-05-06T05:30:37.706Z,100117.47
2023-05-06T05:33:05.801Z,100118.28
2023-05-06T05:35:33.824Z,100116.41
2023-05-06T05:38:01.945Z,100117.22
2023-05-06T05:40:29.979Z,100117.22
2023-05-06T05:42:59.328Z,100117.22
2023-05-06T05:45:27.298Z,100118.06
2023-05-06T05:47:55.281Z,100113.50
2023-05-06T05:50:23.535Z,100120.53
2023-05-06T05:52:51.536Z,100116.78
2023-05-06T05:55:19.582Z,100115.75
2023-05-06T05:57:47.451Z,100122.78
2023-05-06T06:00:17.773Z,100114.66
2023-05-06T06:02:46.168Z,100121.75
2023-05-06T06:05:14.141Z,100114.25
2023-05-06T06:07:42.135Z,100120.69
2023-05-06T06:10:10.362Z,100122.34
2023-05-06T06:12:38.335Z,100117.78
2023-05-06T06:15:07.086Z,100115.06
2023-05-06T06:17:43.232Z,100120.47
2023-05-06T06:20:12.101Z,100124.81
2023-05-06T06:22:40.984Z,100131.03
2023-05-06T06:25:09.864Z,100128.34
2023-05-06T06:27:38.126Z,100126.50
2023-05-06T06:30:07.084Z,100126.50
2023-05-06T06:32:35.118Z,100126.25
2023-05-06T06:35:04.964Z,100131.66
2023-05-06T06:37:32.920Z,100123.53
2023-05-06T06:40:00.917Z,100121.66
2023-05-06T06:42:28.857Z,100127.88
2023-05-06T06:44:57.073Z,100122.47
2023-05-06T06:47:25.024Z,100118.75
2023-05-06T06:49:53.027Z,100118.75
2023-05-06T06:52:22.406Z,100120.38
2023-05-06T06:54:50.393Z,100120.38
2023-05-06T06:57:18.421Z,100129.09
2023-05-06T06:59:47.802Z,100123.69
2023-05-06T07:02:15.762Z,100119.94
2023-05-06T07:04:43.786Z,100127.00
2023-05-06T07:07:11.973Z,100129.72
2023-05-06T07:09:41.329Z,100129.47
2023-05-06T07:12:09.389Z,100129.25
2023-05-06T07:14:37.385Z,100125.50
2023-05-06T07:17:05.393Z,100123.63
2023-05-06T07:19:33.347Z,100126.34
2023-05-06T07:22:02.633Z,100129.88
2023-05-06T07:24:30.578Z,100131.50
2023-05-06T07:26:59.928Z,100136.91
2023-05-06T07:29:27.941Z,100136.09
2023-05-06T07:31:55.876Z,100136.91
2023-05-06T07:34:23.871Z,100141.28
2023-05-06T07:36:52.173Z,100139.41
2023-05-06T07:39:20.107Z,100142.09
2023-05-06T07:41:48.266Z,100134.81
2023-05-06T07:44:17.614Z,100141.03
2023-05-06T07:46:45.646Z,100141.84
2023-05-06T07:49:13.572Z,100142.69
2023-05-06T07:51:43.224Z,100143.53
2023-05-06T07:54:11.256Z,100148.69
2023-05-06T07:56:39.379Z,100142.00
2023-05-06T07:59:07.377Z,100144.50
2023-05-06T08:01:36.776Z,100148.03
2023-05-06T08:04:04.939Z,100136.16
2023-05-06T08:06:33.418Z,100145.94
2023-05-06T08:09:01.417Z,100146.75
2023-05-06T08:11:29.336Z,100143.84
2023-05-06T08:13:57.359Z,100150.66
2023-05-06T08:16:25.773Z,100148.81
2023-05-06T08:18:55.072Z,100150.47
2023-05-06T08:21:22.966Z,100151.53
2023-05-06T08:23:50.922Z,100153.38
2023-05-06T08:26:19.192Z,100155.25
2023-05-06T08:28:47.145Z,100153.16
2023-05-06T08:31:15.141Z,100155.03
2023-05-06T08:33:43.155Z,100154.22
2023-05-06T08:36:12.555Z,100154.81
2023-05-06T08:38:40.605Z,100146.69
2023-05-06T08:41:10.053Z,100154.81
2023-05-06T08:43:42.061Z,100156.47
2023-05-06T08:46:10.103Z,100150.00
2023-05-06T08:48:38.072Z,100159.19
2023-05-06T08:51:07.014Z,100158.34
2023-05-06T08:53:36.535Z,100162.47
2023-05-06T08:56:05.640Z,100152.50
2023-05-06T08:58:35.144Z,100159.31
2023-05-06T09:01:03.872Z,100158.25
2023-05-06T09:03:32.051Z,100148.28
2023-05-06T09:06:00.146Z,100149.94
2023-05-06T09:08:28.141Z,100145.34
2023-05-06T09:10:57.529Z,100148.88
2023-05-06T09:13:25.734Z,100146.78
2023-05-06T09:15:54.716Z,100141.13
2023-05-06T09:18:22.782Z,100141.13
2023-05-06T09:20:50.778Z,100144.69
2023-05-06T09:23:19.153Z,100132.81
2023-05-06T09:25:47.749Z,100146.09
2023-05-06T09:28:17.120Z,100142.34
2023-05-06T09:30:47.702Z,100150.25
2023-05-06T09:33:15.879Z,100140.25
2023-05-06T09:35:44.506Z,100130.47
2023-05-06T09:38:12.393Z,100143.16
2023-05-06T09:40:40.358Z,100138.56
2023-05-06T09:43:10.721Z,100136.72
2023-05-06T09:45:43.334Z,100126.72
2023-05-06T09:48:11.387Z,100127.34
2023-05-06T09:50:39.440Z,100138.16
2023-05-06T09:53:07.477Z,100127.34
2023-05-06T09:55:35.387Z,100125.19
2023-05-06T09:58:05.121Z,100119.78
2023-05-06T10:00:33.209Z,100127.69
2023-05-06T10:03:03.181Z,100118.75
2023-05-06T10:05:31.489Z,100119.34
2023-05-06T10:08:00.631Z,100112.88
2023-05-06T10:10:28.935Z,100118.06
2023-05-06T10:12:57.016Z,100111.59
2023-05-06T10:15:25.490Z,100107.63
2023-05-06T10:17:53.576Z,100098.44
2023-05-06T10:20:23.024Z,100096.81
2023-05-06T10:22:56.908Z,100102.81
2023-05-06T10:25:29.159Z,100095.75
2023-05-06T10:27:57.136Z,100096.56
2023-05-06T10:30:25.651Z,100099.25
2023-05-06T10:32:53.726Z,100092.00
2023-05-06T10:35:27.271Z,100089.28
2023-05-06T10:37:55.215Z,100085.16
2023-05-06T10:40:23.621Z,100091.41
2023-05-06T10:42:52.377Z,100087.03
2023-05-06T10:45:20.505Z,100088.91
2023-05-06T10:48:08.722Z,100090.59
2023-05-06T10:50:39.620Z,100086.59
2023-05-06T10:53:07.609Z,100087.63
2023-05-06T10:55:36.395Z,100076.59
2023-05-06T10:58:05.241Z,100083.63
2023-05-06T11:00:33.551Z,100078.47
2023-05-06T11:03:04.992Z,100074.72
2023-05-06T11:05:33.274Z,100070.13
2023-05-06T11:08:12.879Z,100075.31
2023-05-06T11:10:40.905Z,100076.94
2023-05-06T11:13:26.311Z,100066.94
2023-05-06T11:15:54.699Z,100068.63
2023-05-06T11:18:44.767Z,100066.72
2023-05-06T11:21:40.368Z,100067.56
2023-05-06T11:24:11.392Z,100066.72
2023-05-06T11:26:41.937Z,100058.84
2023-05-06T11:29:09.989Z,100063.44
2023-05-06T11:31:41.993Z,100066.94
2023-05-06T11:34:11.677Z,100062.97
2023-05-06T11:36:50.385Z,100060.25
2023-05-06T11:39:19.804Z,100069.22
2023-05-06T11:41:47.757Z,100069.22
2023-05-06T11:44:25.717Z,100066.25
2023-05-06T11:46:57.059Z,100074.16
2023-05-06T11:49:25.667Z,100062.06
2023-05-06T11:51:53.682Z,100073.69
2023-05-06T11:54:23.725Z,100072.88
2023-05-06T11:56:52.328Z,100064.75
2023-05-06T11:59:28.938Z,100070.16
2023-05-06T12:01:58.188Z,100071.00
2023-05-06T12:04:26.326Z,100074.50
2023-05-06T12:06:55.680Z,100067.22
2023-05-06T12:09:25.108Z,100061.59
2023-05-06T12:11:53.102Z,100068.63
2023-05-06T12:14:21.117Z,100059.50
2023-05-06T12:16:49.113Z,100058.41
2023-05-06T12:19:18.481Z,100055.72
2023-05-06T12:21:46.772Z,100049.50
2023-05-06T12:24:14.762Z,100057.34
2023-05-06T12:26:50.299Z,100050.91
2023-05-06T12:29:18.419Z,100052.78
2023-05-06T12:31:48.181Z,100051.94
2023-05-06T12:34:17.490Z,100051.13
2023-05-06T12:36:46.567Z,100045.72
2023-05-06T12:39:14.603Z,100050.31
2023-05-06T12:41:43.272Z,100046.53
2023-05-06T12:44:37.611Z,100050.31
2023-05-06T12:47:07.447Z,100042.19
2023-05-06T12:49:51.201Z,100049.25
2023-05-06T12:52:19.709Z,100044.91
2023-05-06T12:54:47.807Z,100043.81
2023-05-06T12:57:15.839Z,100033.59
2023-05-06T12:59:45.794Z,100042.31
2023-05-06T13:02:13.883Z,100040.69
2023-05-06T13:04:41.982Z,100044.44
2023-05-06T13:07:10.237Z,100042.31
2023-05-06T13:09:38.236Z,100040.22
2023-05-06T13:12:07.390Z,100039.97
2023-05-06T13:14:37.693Z,100036.22
2023-05-06T13:17:08.761Z,100044.34
2023-05-06T13:19:37.198Z,100051.38
2023-05-06T13:22:05.264Z,100037.03
2023-05-06T13:24:33.311Z,100036.78
2023-05-06T13:27:01.564Z,100043.06
2023-05-06T13:29:29.741Z,100041.38
2023-05-06T13:31:57.964Z,100049.28
2023-05-06T13:34:27.896Z,100042.19
2023-05-06T13:36:56.643Z,100035.16
2023-05-06T13:39:27.596Z,100042.19
2023-05-06T13:41:55.587Z,100023.50
2023-05-06T13:44:24.583Z,100035.16
2023-05-06T13:46:55.421Z,100033.50
2023-05-06T13:49:43.255Z,100031.38
2023-05-06T13:52:13.920Z,100032.44
2023-05-06T13:54:41.824Z,100029.75
2023-05-06T13:57:09.749Z,100032.44
2023-05-06T13:59:37.691Z,100026.81
2023-05-06T14:02:09.097Z,100026.81
2023-05-06T14:04:37.695Z,100028.44
2023-05-06T14:07:06.968Z,100028.25
2023-05-06T14:09:34.949Z,100026.38
2023-05-06T14:12:02.944Z,100025.09
2023-05-06T14:14:30.905Z,100015.91
2023-05-06T14:16:58.816Z,100019.44
2023-05-06T14:19:27.005Z,100019.19
2023-05-06T14:21:55.779Z,100012.97
2023-05-06T14:24:25.110Z,100017.09
2023-05-06T14:26:53.792Z,100016.84
2023-05-06T14:29:21.901Z,100015.81
2023-05-06T14:31:49.945Z,100013.66
2023-05-06T14:34:46.112Z,100009.91
2023-05-06T14:37:14.094Z,100008.84
2023-05-06T14:39:43.411Z,100007.81
2023-05-06T14:42:11.349Z,100008.63
2023-05-06T14:44:39.371Z,100006.75
2023-05-06T14:47:07.349Z,100010.25
2023-05-06T14:49:35.338Z,100008.63
2023-05-06T14:52:03.368Z,100003.44
2023-05-06T14:54:31.354Z,100006.41
2023-05-06T14:57:03.030Z,99997.19
2023-05-06T14:59:31.119Z,100006.13
2023-05-06T15:01:59.159Z,99996.97
2023-05-06T15:04:30.491Z,99994.03
2023-05-06T15:06:58.366Z,99995.91
2023-05-06T15:09:26.806Z,99994.84
2023-05-06T15:11:54.710Z,99992.72
2023-05-06T15:14:24.093Z,99991.09
2023-05-06T15:16:53.302Z,99987.31
2023-05-06T15:19:21.965Z,99990.03
2023-05-06T15:21:49.925Z,99988.97
2023-05-06T15:24:17.949Z,99992.03
2023-05-06T15:26:45.969Z,99986.38
2023-05-06T15:29:14.029Z,99985.31
2023-05-06T15:31:45.086Z,99989.06
2023-05-06T15:34:13.690Z,99985.56
2023-05-06T15:36:42.442Z,99984.72
2023-05-06T15:39:10.339Z,99983.31
2023-05-06T15:41:39.110Z,99981.44
2023-05-06T15:44:07.304Z,99984.94
2023-05-06T15:46:35.345Z,99983.44
2023-05-06T15:51:35.737Z,99984.25
2023-05-06T15:54:03.719Z,99974.25
2023-05-06T15:56:39.296Z,99976.13
2023-05-06T15:59:08.909Z,99978.84
2023-05-06T16:02:18.941Z,99975.31
2023-05-06T16:04:27.105Z,99965.78
2023-05-06T16:06:55.119Z,99976.59
2023-05-06T16:09:23.380Z,99973.09
2023-05-06T16:11:51.364Z,99970.59
2023-05-06T16:14:19.433Z,99966.00
2023-05-06T16:16:47.501Z,99969.78
2023-05-06T16:19:15.525Z,99959.78
2023-05-06T16:21:45.025Z,99954.38
2023-05-06T16:24:13.096Z,99967.06
2023-05-06T16:26:41.388Z,99960.84
2023-05-06T16:29:10.318Z,99961.66
2023-05-06T16:31:38.502Z,99964.38
2023-05-06T16:34:06.719Z,99961.66
2023-05-06T16:36:34.844Z,99953.53
2023-05-06T16:39:06.279Z,99958.16
2023-05-06T16:41:34.294Z,99954.63
2023-05-06T16:44:02.682Z,99961.88
2023-05-06T16:46:30.679Z,99959.19
2023-05-06T16:48:58.785Z,99953.19
2023-05-06T16:51:27.061Z,99951.53
2023-05-06T16:53:55.133Z,99951.78
2023-05-06T16:56:26.624Z,99947.41
2023-05-06T16:58:58.490Z,99951.19
2023-05-06T17:01:26.632Z,99942.47
2023-05-06T17:03:54.711Z,99948.16
2023-05-06T17:06:24.799Z,99947.31
2023-05-06T17:08:52.863Z,99956.28
2023-05-06T17:11:21.311Z,99952.97
2023-05-06T17:13:50.729Z,99956.72
2023-05-06T17:16:18.914Z,99955.06
2023-05-06T17:18:46.889Z,99963.19
2023-05-06T17:21:14.915Z,99958.84
2023-05-06T17:23:42.937Z,99969.69
2023-05-06T17:26:10.962Z,99968.00
2023-05-06T17:28:39.068Z,99968.00
2023-05-06T17:31:08.675Z,99972.59
2023-05-06T17:33:36.708Z,99970.16
2023-05-06T17:36:04.876Z,99964.75
2023-05-06T17:38:32.820Z,99969.31
2023-05-06T17:41:00.834Z,99970.38
2023-05-06T17:43:28.923Z,99977.69
2023-05-06T17:45:56.975Z,99986.00
2023-05-06T17:48:26.459Z,99981.63
2023-05-06T17:50:55.645Z,99981.84
2023-05-06T17:53:23.619Z,99985.63
2023-05-06T17:55:51.695Z,99984.81
2023-05-06T17:58:21.647Z,99989.38
2023-05-06T18:00:49.669Z,99984.22
2023-05-06T18:03:17.854Z,99986.94
2023-05-06T18:05:47.402Z,99985.25
2023-05-06T18:08:15.336Z,99993.63
2023-05-06T18:10:43.383Z,99998.22
2023-05-06T18:13:11.390Z,99996.81
2023-05-06T18:15:39.371Z,100002.22
2023-05-06T18:18:07.404Z,100002.22
2023-05-06T18:20:35.334Z,100008.66
2023-05-06T18:23:04.789Z,100007.84
2023-05-06T18:25:32.745Z,100008.91
2023-05-06T18:28:00.761Z,100008.09
2023-05-06T18:30:28.705Z,100017.03
2023-05-06T18:32:57.075Z,100018.91
2023-05-06T18:35:25.232Z,100017.03
2023-05-06T18:37:53.225Z,100010.19
2023-05-06T18:40:23.324Z,100017.25
2023-05-06T18:42:51.375Z,100015.63
2023-05-06T18:45:19.418Z,100029.13
2023-05-06T18:47:47.519Z,100028.31
2023-05-06T18:50:15.479Z,100021.25
2023-05-06T18:52:43.510Z,100025.00
2023-05-06T18:55:11.964Z,100026.91
2023-05-06T18:57:41.843Z,100033.34
2023-05-06T19:00:11.029Z,100031.72
2023-05-06T19:02:39.098Z,100030.03
2023-05-06T19:05:08.488Z,100029.22
2023-05-06T19:07:39.322Z,100026.75
2023-05-06T19:10:08.444Z,100027.81
2023-05-06T19:12:36.664Z,100028.88
2023-05-06T19:15:07.362Z,100031.78
2023-05-06T19:17:35.350Z,100030.97
2023-05-06T19:20:04.271Z,100024.75
2023-05-06T19:22:32.970Z,100022.25
2023-05-06T19:25:00.929Z,100023.31
2023-05-06T19:27:28.963Z,100026.03
2023-05-06T19:29:56.909Z,100027.66
2023-05-06T19:32:26.425Z,100023.31
2023-05-06T19:34:54.397Z,100015.22
2023-05-06T19:37:22.532Z,100020.63
2023-05-06T19:39:50.651Z,100019.81
2023-05-06T19:42:18.640Z,100019.81
2023-05-06T19:44:48.286Z,100022.72
2023-05-06T19:47:16.396Z,100024.41
2023-05-06T19:49:46.221Z,100020.03
2023-05-06T19:52:14.386Z,100022.72
2023-05-06T19:54:42.466Z,100017.56
2023-05-06T19:57:10.535Z,100019.41
2023-05-06T19:59:38.590Z,100021.31
2023-05-06T20:02:09.804Z,100023.19
2023-05-06T20:04:37.883Z,100021.56
2023-05-06T20:07:07.375Z,100030.72
2023-05-06T20:09:35.770Z,100029.88
2023-05-06T20:12:03.772Z,100025.75
2023-05-06T20:14:31.734Z,100025.75
2023-05-06T20:16:59.708Z,100020.34
2023-05-06T20:19:30.339Z,100023.31
2023-05-06T20:21:58.485Z,100023.31
2023-05-06T20:24:29.516Z,100029.75
2023-05-06T20:26:59.019Z,100020.81
2023-05-06T20:29:27.169Z,100027.28
2023-05-06T20:31:55.299Z,100019.41
2023-05-06T20:34:26.179Z,100020.22
2023-05-06T20:36:54.419Z,100026.69
2023-05-06T20:39:22.886Z,100014.22
2023-05-06T20:41:52.372Z,100022.31
2023-05-06T20:44:20.464Z,100016.91
2023-05-06T20:46:48.537Z,100019.63
2023-05-06T20:49:16.605Z,100013.38
2023-05-06T20:51:44.666Z,100030.44
2023-05-06T20:54:12.916Z,100022.56
2023-05-06T20:56:42.889Z,100028.78
2023-05-06T20:59:12.292Z,100026.09
2023-05-06T21:01:40.392Z,100026.09
2023-05-06T21:04:08.486Z,100025.50
2023-05-06T21:06:36.588Z,100024.66
2023-05-06T21:09:04.558Z,100030.06
2023-05-06T21:11:32.666Z,100027.59
2023-05-06T21:14:00.762Z,100031.34
2023-05-06T21:16:30.141Z,100024.06
2023-05-06T21:18:58.218Z,100018.91
2023-05-06T21:21:26.294Z,100025.34
2023-05-06T21:23:54.404Z,100027.22
2023-05-06T21:26:22.735Z,100021.00
2023-05-06T21:28:52.239Z,100016.66
2023-05-06T21:31:20.443Z,100017.69
2023-05-06T21:33:50.129Z,100015.25
2023-05-06T21:36:18.088Z,100015.25
2023-05-06T21:38:46.162Z,100014.41
2023-05-06T21:41:14.282Z,100017.34
2023-05-06T21:43:43.118Z,100021.94
2023-05-06T21:46:11.203Z,100016.53
2023-05-06T21:48:39.308Z,100022.75
2023-05-06T21:51:08.920Z,100018.16
2023-05-06T21:53:37.039Z,100024.63
2023-05-06T21:56:05.303Z,100015.47
2023-05-06T21:58:33.346Z,100024.63
2023-05-06T22:01:01.363Z,100023.56
2023-05-06T22:03:29.798Z,100025.66
2023-05-06T22:05:58.223Z,100030.88
2023-05-06T22:08:27.829Z,100026.50
2023-05-06T22:10:56.725Z,100024.84
2023-05-06T22:13:26.642Z,100024.03
2023-05-06T22:15:55.547Z,100029.44
2023-05-06T22:18:23.753Z,100029.44
2023-05-06T22:20:52.570Z,100038.59
2023-05-06T22:23:23.036Z,100025.31
2023-05-06T22:25:52.730Z,100028.22
2023-05-06T22:28:20.834Z,100029.28
2023-05-06T22:30:50.473Z,100026.78
2023-05-06T22:33:18.461Z,100019.72
2023-05-06T22:35:50.778Z,100021.38
2023-05-06T22:38:18.725Z,100025.13
2023-05-06T22:40:46.821Z,100019.94
2023-05-06T22:43:16.164Z,100023.72
2023-05-06T22:45:44.320Z,100032.03
2023-05-06T22:48:12.330Z,100028.50
2023-05-06T22:50:40.487Z,100031.22
2023-05-06T22:53:14.864Z,100031.22
2023-05-06T22:55:43.795Z,100020.41
2023-05-06T22:58:11.802Z,100025.00
2023-05-06T23:00:43.555Z,100016.88
2023-05-06T23:03:17.272Z,100018.78
2023-05-06T23:05:45.297Z,100025.81
2023-05-06T23:08:13.273Z,100031.22
2023-05-06T23:10:41.262Z,100025.00
2023-05-06T23:13:09.261Z,100024.19
2023-05-06T23:15:37.332Z,100011.50
2023-05-06T23:18:06.904Z,100014.41
2023-05-06T23:20:34.972Z,100013.38
2023-05-06T23:23:02.924Z,100010.06
2023-05-06T23:25:30.864Z,100012.75
2023-05-06T23:27:58.805Z,100008.44
2023-05-06T23:30:26.918Z,100001.34
2023-05-06T23:32:54.883Z,99997.00
2023-05-06T23:35:24.215Z,99989.13
2023-05-06T23:37:52.233Z,99998.06
2023-05-06T23:40:20.193Z,99994.53
2023-05-06T23:42:48.095Z,99993.72
2023-05-06T23:45:16.196Z,99993.72
2023-05-06T23:47:44.186Z,99995.59
2023-05-06T23:50:12.651Z,99997.47
2023-05-06T23:52:42.296Z,99989.59
2023-05-06T23:55:10.778Z,99998.50
2023-05-06T23:57:39.080Z,99995.22
